createdAt,value
2017-10-04T00:00:57.302Z,60.40
2017-10-04T00:03:24.814Z,60.40
2017-10-04T00:05:52.306Z,60.30
2017-10-04T00:08:19.804Z,60.40
2017-10-04T00:10:48.187Z,60.30
2017-10-04T00:13:15.842Z,60.30
2017-10-04T00:15:43.339Z,60.20
2017-10-04T00:18:10.965Z,60.30
2017-10-04T00:20:38.464Z,60.40
2017-10-04T00:23:06.084Z,60.50
2017-10-04T00:25:33.746Z,60.30
2017-10-04T00:28:01.235Z,60.10
2017-10-04T00:30:28.776Z,60.20
2017-10-04T00:32:56.295Z,59.90
2017-10-04T00:35:23.809Z,60.00
2017-10-04T00:37:51.313Z,60.10
2017-10-04T00:40:18.899Z,59.90
2017-10-04T00:42:46.527Z,60.00
2017-10-04T00:45:14.192Z,59.90
2017-10-04T00:47:41.690Z,59.50
2017-10-04T00:50:09.223Z,59.90
2017-10-04T00:52:36.746Z,59.80
2017-10-04T00:55:04.315Z,60.00
2017-10-04T00:57:31.817Z,59.90
2017-10-04T00:59:59.529Z,59.70
2017-10-04T01:02:27.193Z,60.00
2017-10-04T01:04:54.715Z,59.80
2017-10-04T01:07:23.126Z,59.80
2017-10-04T01:09:50.647Z,59.80
2017-10-04T01:12:19.053Z,59.80
2017-10-04T01:14:46.578Z,60.40
2017-10-04T01:17:14.856Z,59.90
2017-10-04T01:19:43.154Z,59.80
2017-10-04T01:22:10.723Z,59.70
2017-10-04T01:24:38.247Z,59.70
2017-10-04T01:27:06.528Z,59.70
2017-10-04T01:29:34.133Z,59.60
2017-10-04T01:32:01.631Z,59.60
2017-10-04T01:34:29.925Z,59.70
2017-10-04T01:36:57.431Z,60.30
2017-10-04T01:39:24.954Z,59.70
2017-10-04T01:41:52.447Z,59.60
2017-10-04T01:44:20.738Z,59.40
2017-10-04T01:46:49.039Z,59.50
2017-10-04T01:49:16.651Z,59.50
2017-10-04T01:51:44.922Z,59.20
2017-10-04T01:54:13.218Z,59.30
2017-10-04T01:56:41.515Z,59.40
2017-10-04T01:59:09.077Z,59.40
2017-10-04T02:01:36.719Z,59.40
2017-10-04T02:04:04.382Z,59.30
2017-10-04T02:06:31.883Z,59.10
2017-10-04T02:08:59.503Z,59.30
2017-10-04T02:11:27.149Z,59.20
2017-10-04T02:13:54.826Z,59.30
2017-10-04T02:16:22.331Z,59.20
2017-10-04T02:18:50.606Z,59.70
2017-10-04T02:21:18.893Z,59.10
2017-10-04T02:23:47.223Z,59.20
2017-10-04T02:26:14.720Z,59.20
2017-10-04T02:28:42.419Z,59.10
2017-10-04T02:31:09.942Z,59.60
2017-10-04T02:33:38.218Z,59.10
2017-10-04T02:36:05.800Z,59.10
2017-10-04T02:38:33.453Z,59.10
2017-10-04T02:41:01.102Z,59.00
2017-10-04T02:43:28.718Z,58.80
2017-10-04T02:45:56.427Z,58.90
2017-10-04T02:48:23.927Z,59.00
2017-10-04T02:50:51.556Z,58.80
2017-10-04T02:53:19.190Z,58.80
2017-10-04T02:55:46.848Z,59.30
2017-10-04T02:58:14.531Z,58.90
2017-10-04T03:00:42.092Z,58.70
2017-10-04T03:06:31.424Z,58.70
2017-10-04T03:08:59.691Z,58.80
2017-10-04T03:11:27.967Z,58.30
2017-10-04T03:13:56.250Z,58.80
2017-10-04T03:16:24.520Z,58.70
2017-10-04T03:18:52.799Z,58.70
2017-10-04T03:21:21.083Z,58.60
2017-10-04T03:23:48.600Z,58.60
2017-10-04T03:26:17.626Z,58.50
2017-10-04T03:28:45.167Z,58.50
2017-10-04T03:31:12.685Z,58.40
2017-10-04T03:33:40.179Z,58.60
2017-10-04T03:36:08.455Z,58.60
2017-10-04T03:38:36.724Z,58.60
2017-10-04T03:41:05.007Z,58.60
2017-10-04T03:43:32.571Z,58.50
2017-10-04T03:46:00.255Z,58.40
2017-10-04T03:48:27.785Z,58.50
2017-10-04T03:50:55.307Z,58.40
2017-10-04T03:53:22.831Z,58.40
2017-10-04T03:55:50.460Z,58.40
2017-10-04T03:58:18.127Z,58.50
2017-10-04T04:00:45.650Z,58.40
2017-10-04T04:03:13.982Z,58.40
2017-10-04T04:05:41.490Z,58.40
2017-10-04T04:08:08.987Z,58.30
2017-10-04T04:10:36.516Z,58.30
2017-10-04T04:13:04.203Z,58.30
2017-10-04T04:15:31.961Z,58.20
2017-10-04T04:17:59.463Z,58.20
2017-10-04T04:20:27.762Z,58.40
2017-10-04T04:22:55.274Z,58.30
2017-10-04T04:25:22.797Z,58.20
2017-10-04T04:27:50.307Z,58.10
2017-10-04T04:30:18.599Z,58.10
2017-10-04T04:32:46.100Z,58.10
2017-10-04T04:35:13.691Z,58.10
2017-10-04T04:37:41.971Z,58.00
2017-10-04T04:40:10.258Z,58.00
2017-10-04T04:42:37.770Z,58.00
2017-10-04T04:45:05.285Z,57.60
2017-10-04T04:47:32.797Z,57.90
2017-10-04T04:50:01.113Z,58.10
2017-10-04T04:52:28.638Z,57.70
2017-10-04T04:54:56.163Z,58.00
2017-10-04T04:57:23.691Z,58.00
2017-10-04T04:59:51.255Z,52.30
2017-10-04T05:02:18.763Z,50.40
2017-10-04T05:04:47.119Z,50.20
2017-10-04T05:07:14.635Z,50.20
2017-10-04T05:09:42.155Z,49.60
2017-10-04T05:12:09.922Z,48.10
2017-10-04T05:14:37.418Z,49.30
2017-10-04T05:17:04.912Z,47.80
2017-10-04T05:19:33.179Z,46.40
2017-10-04T05:22:01.443Z,47.60
2017-10-04T05:24:28.934Z,47.70
2017-10-04T05:26:56.474Z,44.50
2017-10-04T05:29:23.983Z,50.00
2017-10-04T05:31:51.474Z,55.50
2017-10-04T05:34:19.751Z,55.70
2017-10-04T05:36:48.160Z,47.70
2017-10-04T05:39:15.684Z,47.60
2017-10-04T05:41:43.970Z,55.10
2017-10-04T05:44:11.491Z,55.10
2017-10-04T05:46:39.014Z,55.60
2017-10-04T05:49:06.519Z,56.40
2017-10-04T05:51:34.790Z,54.60
2017-10-04T05:54:03.053Z,56.50
2017-10-04T05:56:30.559Z,56.00
2017-10-04T05:58:58.128Z,56.30
2017-10-04T06:01:25.667Z,56.60
2017-10-04T06:03:53.166Z,57.00
2017-10-04T06:06:20.691Z,57.70
2017-10-04T06:08:48.183Z,57.30
2017-10-04T06:11:15.715Z,57.10
2017-10-04T06:13:43.228Z,57.20
2017-10-04T06:16:10.897Z,57.00
2017-10-04T06:18:38.390Z,56.90
2017-10-04T06:21:05.908Z,56.90
2017-10-04T06:23:33.416Z,57.00
2017-10-04T06:26:00.937Z,56.90
2017-10-04T06:28:28.454Z,56.80
2017-10-04T06:30:55.975Z,56.80
2017-10-04T06:33:24.422Z,56.90
2017-10-04T06:35:51.947Z,56.80
2017-10-04T06:38:19.448Z,56.80
2017-10-04T06:40:47.079Z,56.80
2017-10-04T06:43:14.572Z,56.80
2017-10-04T06:45:42.099Z,56.70
2017-10-04T06:48:09.639Z,56.70
2017-10-04T06:50:37.565Z,56.80
2017-10-04T06:53:05.077Z,56.70
2017-10-04T06:55:32.594Z,56.70
2017-10-04T06:58:00.123Z,56.80
2017-10-04T07:00:27.643Z,56.70
2017-10-04T07:02:55.140Z,56.80
2017-10-04T07:05:22.847Z,56.90
2017-10-04T07:07:50.356Z,57.10
2017-10-04T07:10:17.850Z,56.90
2017-10-04T07:12:45.418Z,57.00
2017-10-04T07:15:13.083Z,57.10
2017-10-04T07:17:40.633Z,57.30
2017-10-04T07:20:08.203Z,57.40
2017-10-04T07:22:35.714Z,57.70
2017-10-04T07:25:03.979Z,57.70
2017-10-04T07:27:32.378Z,57.80
2017-10-04T07:30:00.039Z,57.70
2017-10-04T07:32:27.560Z,57.80
2017-10-04T07:34:55.357Z,57.90
2017-10-04T07:37:22.890Z,57.90
2017-10-04T07:39:51.171Z,58.00
2017-10-04T07:42:19.455Z,57.50
2017-10-04T07:44:47.035Z,57.50
2017-10-04T07:47:14.670Z,57.90
2017-10-04T07:49:42.172Z,57.60
2017-10-04T07:52:09.697Z,57.90
2017-10-04T07:54:37.219Z,57.90
2017-10-04T07:57:04.752Z,57.70
2017-10-04T07:59:32.274Z,58.20
2017-10-04T08:01:59.780Z,58.00
2017-10-04T08:04:27.306Z,57.70
2017-10-04T08:06:54.814Z,57.50
2017-10-04T08:09:22.322Z,57.80
2017-10-04T08:11:49.853Z,57.70
2017-10-04T08:14:17.350Z,57.70
2017-10-04T08:16:44.958Z,57.60
2017-10-04T08:19:12.459Z,57.70
2017-10-04T08:21:39.962Z,57.40
2017-10-04T08:24:07.542Z,57.70
2017-10-04T08:26:35.076Z,57.80
2017-10-04T08:29:02.580Z,57.70
2017-10-04T08:31:30.096Z,57.90
2017-10-04T08:33:57.609Z,57.40
2017-10-04T08:36:25.901Z,57.60
2017-10-04T08:38:53.447Z,57.60
2017-10-04T08:41:20.952Z,57.70
2017-10-04T08:43:48.453Z,57.70
2017-10-04T08:46:16.719Z,57.90
2017-10-04T08:48:44.986Z,57.70
2017-10-04T08:51:13.259Z,57.80
2017-10-04T08:53:41.542Z,57.50
2017-10-04T08:56:09.939Z,57.90
2017-10-04T08:58:37.471Z,57.80
2017-10-04T09:01:05.751Z,57.60
2017-10-04T09:03:34.032Z,57.40
2017-10-04T09:06:03.340Z,57.40
2017-10-04T09:08:30.972Z,57.80
2017-10-04T09:10:59.238Z,57.60
2017-10-04T09:13:27.513Z,57.60
2017-10-04T09:15:55.797Z,57.60
2017-10-04T09:18:24.611Z,57.70
2017-10-04T09:20:52.284Z,57.70
2017-10-04T09:23:19.788Z,57.40
2017-10-04T09:25:48.065Z,57.60
2017-10-04T09:28:16.352Z,57.40
2017-10-04T09:30:44.128Z,57.50
2017-10-04T09:33:11.647Z,57.40
2017-10-04T09:35:39.920Z,57.30
2017-10-04T09:38:08.214Z,57.50
2017-10-04T09:40:35.719Z,57.40
2017-10-04T09:43:03.214Z,57.50
2017-10-04T09:45:30.747Z,57.50
2017-10-04T09:47:58.251Z,57.40
2017-10-04T09:50:25.755Z,57.50
2017-10-04T09:52:53.255Z,57.60
2017-10-04T09:55:20.771Z,57.50
2017-10-04T09:57:48.377Z,57.40
2017-10-04T10:00:15.895Z,57.70
2017-10-04T10:02:44.171Z,57.50
2017-10-04T10:05:12.525Z,57.60
2017-10-04T10:07:40.155Z,57.60
2017-10-04T10:10:07.703Z,57.50
2017-10-04T10:12:35.339Z,57.60
2017-10-04T10:15:03.035Z,57.60
2017-10-04T10:19:58.807Z,57.70
2017-10-04T10:22:27.078Z,57.40
2017-10-04T10:24:55.359Z,57.60
2017-10-04T10:27:23.624Z,57.50
2017-10-04T10:29:51.883Z,57.30
2017-10-04T10:32:19.402Z,57.30
2017-10-04T10:34:46.902Z,57.50
2017-10-04T10:37:14.597Z,57.40
2017-10-04T10:39:42.939Z,57.40
2017-10-04T10:42:11.210Z,57.30
2017-10-04T10:44:39.487Z,57.50
2017-10-04T10:47:07.771Z,57.60
2017-10-04T10:49:36.039Z,57.60
2017-10-04T10:52:04.323Z,57.60
2017-10-04T10:54:31.831Z,57.50
2017-10-04T10:56:59.364Z,57.70
2017-10-04T10:59:26.994Z,57.50
2017-10-04T11:01:54.620Z,57.50
2017-10-04T11:04:22.145Z,57.50
2017-10-04T11:06:49.639Z,57.90
2017-10-04T11:09:18.039Z,57.30
2017-10-04T11:11:45.573Z,57.20
2017-10-04T11:14:13.895Z,57.60
2017-10-04T11:16:41.626Z,57.60
2017-10-04T11:19:09.291Z,57.40
2017-10-04T11:21:36.803Z,57.20
2017-10-04T11:24:04.324Z,57.20
2017-10-04T11:26:31.881Z,57.50
2017-10-04T11:28:59.527Z,57.50
2017-10-04T11:31:27.023Z,57.40
2017-10-04T11:33:54.523Z,57.30
2017-10-04T11:36:22.027Z,57.80
2017-10-04T11:38:49.527Z,57.30
2017-10-04T11:41:17.028Z,57.30
2017-10-04T11:43:44.530Z,57.50
2017-10-04T11:46:12.815Z,57.40
2017-10-04T11:48:40.329Z,57.50
2017-10-04T11:51:08.603Z,57.30
2017-10-04T11:53:36.320Z,57.40
2017-10-04T11:56:03.962Z,57.60
2017-10-04T11:58:31.455Z,57.40
2017-10-04T12:00:58.955Z,57.40
2017-10-04T12:03:27.238Z,57.70
2017-10-04T12:05:54.823Z,58.20
2017-10-04T12:08:22.318Z,57.60
2017-10-04T12:10:50.589Z,57.40
2017-10-04T12:13:18.098Z,57.40
2017-10-04T12:15:45.655Z,57.30
2017-10-04T12:18:13.183Z,57.50
2017-10-04T12:20:41.442Z,57.60
2017-10-04T12:23:09.823Z,57.30
2017-10-04T12:25:37.323Z,57.90
2017-10-04T12:28:04.884Z,57.40
2017-10-04T12:30:32.516Z,57.70
2017-10-04T12:33:00.040Z,57.50
2017-10-04T12:35:27.551Z,57.60
2017-10-04T12:37:55.050Z,57.60
2017-10-04T12:40:22.566Z,57.70
2017-10-04T12:42:50.097Z,57.50
2017-10-04T12:45:17.758Z,57.50
2017-10-04T12:47:45.251Z,57.50
2017-10-04T12:50:12.804Z,57.30
2017-10-04T12:52:40.339Z,57.50
2017-10-04T12:55:07.830Z,57.50
2017-10-04T12:57:35.319Z,57.50
2017-10-04T13:00:02.906Z,57.50
2017-10-04T13:02:30.446Z,57.50
2017-10-04T13:04:58.007Z,57.50
2017-10-04T13:07:25.535Z,57.40
2017-10-04T13:09:53.798Z,57.40
2017-10-04T13:12:22.087Z,57.30
2017-10-04T13:14:49.651Z,57.80
2017-10-04T13:17:17.163Z,57.20
2017-10-04T13:19:44.656Z,57.40
2017-10-04T13:22:12.284Z,57.10
2017-10-04T13:24:39.890Z,57.40
2017-10-04T13:27:07.383Z,57.30
2017-10-04T13:29:34.882Z,57.10
2017-10-04T13:32:02.375Z,57.20
2017-10-04T13:34:29.912Z,57.30
2017-10-04T13:36:57.407Z,57.20
2017-10-04T13:39:24.904Z,57.40
2017-10-04T13:41:52.418Z,57.30
2017-10-04T13:44:19.939Z,57.10
2017-10-04T13:46:47.574Z,57.30
2017-10-04T13:49:15.081Z,57.20
2017-10-04T13:51:42.587Z,57.10
2017-10-04T13:54:10.087Z,57.30
2017-10-04T13:56:37.611Z,57.30
2017-10-04T13:59:05.106Z,57.20
2017-10-04T14:01:32.613Z,57.10
2017-10-04T14:04:00.191Z,57.30
2017-10-04T14:06:27.695Z,57.40
2017-10-04T14:08:55.952Z,57.20
2017-10-04T14:11:23.556Z,57.10
2017-10-04T14:13:51.057Z,57.70
2017-10-04T14:16:18.551Z,57.10
2017-10-04T14:18:46.135Z,57.20
2017-10-04T14:21:13.771Z,57.20
2017-10-04T14:23:41.265Z,57.00
2017-10-04T14:26:08.879Z,57.10
2017-10-04T14:28:36.388Z,57.10
2017-10-04T14:31:03.888Z,57.10
2017-10-04T14:33:31.551Z,57.10
2017-10-04T14:35:59.110Z,56.90
2017-10-04T14:38:26.611Z,56.90
2017-10-04T14:40:54.103Z,57.00
2017-10-04T14:43:22.371Z,57.10
2017-10-04T14:45:50.644Z,57.00
2017-10-04T14:48:18.916Z,57.10
2017-10-04T14:50:46.502Z,57.10
2017-10-04T14:53:14.008Z,57.00
2017-10-04T14:55:41.506Z,57.00
2017-10-04T14:58:09.000Z,57.00
2017-10-04T15:00:36.537Z,57.20
2017-10-04T15:03:04.035Z,56.90
2017-10-04T15:05:31.530Z,56.80
2017-10-04T15:07:59.053Z,57.00
2017-10-04T15:10:26.588Z,56.80
2017-10-04T15:12:54.201Z,56.90
2017-10-04T15:15:21.698Z,57.00
2017-10-04T15:17:49.196Z,57.00
2017-10-04T15:20:16.959Z,57.10
2017-10-04T15:22:44.479Z,57.10
2017-10-04T15:25:12.743Z,57.00
2017-10-04T15:27:40.248Z,57.00
2017-10-04T15:30:07.781Z,56.90
2017-10-04T15:32:36.109Z,56.80
2017-10-04T15:35:03.603Z,56.80
2017-10-04T15:37:31.924Z,56.80
2017-10-04T15:39:59.483Z,56.90
2017-10-04T15:42:26.975Z,56.90
2017-10-04T15:44:55.252Z,56.80
2017-10-04T15:47:23.516Z,56.90
2017-10-04T15:49:51.011Z,56.70
2017-10-04T15:52:18.571Z,56.80
2017-10-04T15:54:46.095Z,57.00
2017-10-04T15:57:14.355Z,56.90
2017-10-04T15:59:42.635Z,57.00
2017-10-04T16:02:10.899Z,56.80
2017-10-04T16:04:38.396Z,56.80
2017-10-04T16:07:05.906Z,56.80
2017-10-04T16:09:33.403Z,56.70
2017-10-04T16:12:01.067Z,56.60
2017-10-04T16:14:28.573Z,56.90
2017-10-04T16:16:56.067Z,56.80
2017-10-04T16:19:24.332Z,56.70
2017-10-04T16:21:52.595Z,56.70
2017-10-04T16:24:20.863Z,56.60
2017-10-04T16:26:48.467Z,56.60
2017-10-04T16:29:15.975Z,56.70
2017-10-04T16:31:43.468Z,56.80
2017-10-04T16:34:11.034Z,56.60
2017-10-04T16:36:38.703Z,56.50
2017-10-04T16:39:06.199Z,56.70
2017-10-04T16:41:33.704Z,56.70
2017-10-04T16:44:01.275Z,56.50
2017-10-04T16:46:28.779Z,56.60
2017-10-04T16:48:57.038Z,56.50
2017-10-04T16:51:25.464Z,56.50
2017-10-04T16:53:52.960Z,56.50
2017-10-04T16:56:20.455Z,56.50
2017-10-04T16:58:47.951Z,56.60
2017-10-04T17:01:15.455Z,56.60
2017-10-04T17:03:42.947Z,56.50
2017-10-04T17:06:10.583Z,56.50
2017-10-04T17:08:38.080Z,56.60
2017-10-04T17:11:05.607Z,56.60
2017-10-04T17:13:33.168Z,56.50
2017-10-04T17:16:00.802Z,56.40
2017-10-04T17:18:28.463Z,56.40
2017-10-04T17:20:55.959Z,56.50
2017-10-04T17:23:23.478Z,56.50
2017-10-04T17:25:51.045Z,56.50
2017-10-04T17:28:18.694Z,56.60
2017-10-04T17:30:46.352Z,56.60
2017-10-04T17:33:13.883Z,56.40
2017-10-04T17:35:42.151Z,56.50
2017-10-04T17:38:10.449Z,56.50
2017-10-04T17:40:37.942Z,56.50
2017-10-04T17:43:05.443Z,56.60
2017-10-04T17:45:32.961Z,56.60
2017-10-04T17:48:00.463Z,56.40
2017-10-04T17:50:28.048Z,56.40
2017-10-04T17:52:55.540Z,56.40
2017-10-04T17:55:23.978Z,56.50
2017-10-04T17:57:51.481Z,56.50
2017-10-04T18:00:18.995Z,56.50
2017-10-04T18:02:46.550Z,56.50
2017-10-04T18:05:14.075Z,56.50
2017-10-04T18:07:41.636Z,56.50
2017-10-04T18:10:09.147Z,56.60
2017-10-04T18:12:36.644Z,56.50
2017-10-04T18:15:04.404Z,56.60
2017-10-04T18:17:31.927Z,56.60
2017-10-04T18:19:59.525Z,56.50
2017-10-04T18:22:27.047Z,57.10
2017-10-04T18:24:55.308Z,56.30
2017-10-04T18:27:23.594Z,56.40
2017-10-04T18:29:51.860Z,56.50
2017-10-04T18:32:20.152Z,56.40
2017-10-04T18:34:48.411Z,56.40
2017-10-04T18:37:16.818Z,56.30
2017-10-04T18:39:44.328Z,56.30
2017-10-04T18:42:12.598Z,56.50
2017-10-04T18:44:40.096Z,56.40
2017-10-04T18:47:07.595Z,56.40
2017-10-04T18:49:35.107Z,56.40
2017-10-04T18:52:02.780Z,56.30
2017-10-04T18:54:30.303Z,56.30
2017-10-04T18:56:58.586Z,56.40
2017-10-04T18:59:26.191Z,56.30
2017-10-04T19:01:53.695Z,56.40
2017-10-04T19:04:21.303Z,56.30
2017-10-04T19:06:48.801Z,56.30
2017-10-04T19:09:17.091Z,56.30
2017-10-04T19:11:44.591Z,56.20
2017-10-04T19:14:12.307Z,56.30
2017-10-04T19:16:39.816Z,56.40
2017-10-04T19:19:07.306Z,56.30
2017-10-04T19:21:34.872Z,56.30
2017-10-04T19:24:02.379Z,56.40
2017-10-04T19:26:29.892Z,56.30
2017-10-04T19:28:57.382Z,56.50
2017-10-04T19:31:24.936Z,56.40
2017-10-04T19:33:52.430Z,56.40
2017-10-04T19:36:20.711Z,56.30
2017-10-04T19:38:49.094Z,56.20
2017-10-04T19:41:16.611Z,56.20
2017-10-04T19:43:44.121Z,56.20
2017-10-04T19:46:11.651Z,56.20
2017-10-04T19:48:39.259Z,56.30
2017-10-04T19:51:06.779Z,56.30
2017-10-04T19:53:34.279Z,56.20
2017-10-04T19:56:01.898Z,56.20
2017-10-04T19:58:29.423Z,56.10
2017-10-04T20:00:57.683Z,56.20
2017-10-04T20:03:25.967Z,56.30
2017-10-04T20:05:54.222Z,56.30
2017-10-04T20:08:21.755Z,56.30
2017-10-04T20:10:49.252Z,56.00
2017-10-04T20:13:16.783Z,55.90
2017-10-04T20:15:44.278Z,56.20
2017-10-04T20:18:11.883Z,56.10
2017-10-04T20:20:39.388Z,56.00
2017-10-04T20:23:06.978Z,56.10
2017-10-04T20:25:34.471Z,56.10
2017-10-04T20:28:01.971Z,56.10
2017-10-04T20:30:29.560Z,56.00
2017-10-04T20:32:57.075Z,56.10
2017-10-04T20:35:24.677Z,56.10
2017-10-04T20:37:52.199Z,55.90
2017-10-04T20:40:19.718Z,56.00
2017-10-04T20:42:47.225Z,56.00
2017-10-04T20:45:14.735Z,56.00
2017-10-04T20:47:43.013Z,56.10
2017-10-04T20:50:11.337Z,56.10
2017-10-04T20:52:38.883Z,56.10
2017-10-04T20:55:06.515Z,56.00
2017-10-04T20:57:34.126Z,56.10
2017-10-04T21:00:01.722Z,56.00
2017-10-04T21:02:29.344Z,56.00
2017-10-04T21:04:57.777Z,56.50
2017-10-04T21:07:25.299Z,55.90
2017-10-04T21:09:53.560Z,55.90
2017-10-04T21:12:21.855Z,56.00
2017-10-04T21:14:49.351Z,56.00
2017-10-04T21:17:16.871Z,55.90
2017-10-04T21:19:44.374Z,55.90
2017-10-04T21:22:11.899Z,55.90
2017-10-04T21:24:39.653Z,55.90
2017-10-04T21:27:07.158Z,55.70
2017-10-04T21:29:34.655Z,55.90
2017-10-04T21:32:02.212Z,56.00
2017-10-04T21:34:29.715Z,55.80
2017-10-04T21:36:57.215Z,55.90
2017-10-04T21:39:24.731Z,55.90
2017-10-04T21:41:52.453Z,55.90
2017-10-04T21:44:20.023Z,55.90
2017-10-04T21:46:47.543Z,56.00
2017-10-04T21:49:15.203Z,56.00
2017-10-04T21:51:42.863Z,55.90
2017-10-04T21:54:10.402Z,55.90
2017-10-04T21:56:38.779Z,55.70
2017-10-04T21:59:06.315Z,55.70
2017-10-04T22:01:34.582Z,56.30
2017-10-04T22:04:02.078Z,55.90
2017-10-04T22:06:29.599Z,56.00
2017-10-04T22:08:57.090Z,55.90
2017-10-04T22:11:24.625Z,56.00
2017-10-04T22:13:52.903Z,56.50
2017-10-04T22:16:21.207Z,56.00
2017-10-04T22:18:48.707Z,56.00
2017-10-04T22:21:17.007Z,55.90
2017-10-04T22:23:44.537Z,55.90
2017-10-04T22:26:12.853Z,56.00
2017-10-04T22:28:40.607Z,56.00
2017-10-04T22:31:08.102Z,55.90
2017-10-04T22:33:35.603Z,55.90
2017-10-04T22:36:03.868Z,55.80
2017-10-04T22:38:32.157Z,55.90
2017-10-04T22:41:00.427Z,55.80
2017-10-04T22:43:28.707Z,55.90
2017-10-04T22:45:56.307Z,55.80
2017-10-04T22:48:23.823Z,55.90
2017-10-04T22:50:51.409Z,55.80
2017-10-04T22:53:18.936Z,55.70
2017-10-04T22:55:46.508Z,55.90
2017-10-04T22:58:14.162Z,55.80
2017-10-04T23:00:41.663Z,55.80
2017-10-04T23:03:09.199Z,55.80
2017-10-04T23:05:36.699Z,56.00
2017-10-04T23:08:05.019Z,55.70
2017-10-04T23:10:32.514Z,56.20
2017-10-04T23:13:00.011Z,55.70
2017-10-04T23:15:27.607Z,55.80
2017-10-04T23:17:55.123Z,55.70
2017-10-04T23:20:22.784Z,55.80
2017-10-04T23:22:50.279Z,55.60
2017-10-04T23:25:17.834Z,55.60
2017-10-04T23:27:46.102Z,56.00
2017-10-04T23:30:13.620Z,55.60
2017-10-04T23:32:41.180Z,55.70
2017-10-04T23:35:08.821Z,55.70
2017-10-04T23:37:36.312Z,55.70
2017-10-04T23:40:03.831Z,55.80
2017-10-04T23:42:31.698Z,55.80
2017-10-04T23:44:59.296Z,55.60
2017-10-04T23:47:26.799Z,55.60
2017-10-04T23:49:55.073Z,55.70
2017-10-04T23:52:23.341Z,55.60
2017-10-04T23:54:51.602Z,55.60
2017-10-04T23:57:19.890Z,55.70
2017-10-04T23:59:48.212Z,55.50
